ポートモレスビー の空港の天気 - METARとTAF

ポートモレスビー・ジャクソン国際空港 ( AYPY / POM ) - パプアニューギニア ポートモレスビー
飛行場実況気象(Metar)
観測時間11/18 17:00 PGT (11/18 07:00 UTC)
風向・風速南南東 3m/s
視程10km以上
天気現象弱いしゅう雨
全天の4割程度の雲 雲底高度 300m
全天の4割程度の雲 雲底高度 910m
気温25℃
湿度94%
気圧1009hPa
METARAYPY 180700Z 15005KT 9999 -SHRA SCT010 SCT030 25/24 Q1009
過去の天気等 Google飛行場航空写真 Wunderground天気予報

過去48時間のMETAR

飛行場予報(TAF)
発表時間: 11/18 13:30 PGT (11/18 03:30 UTC)
予報対象時間: 18日16時 PGT ~ 19日16時 PGT
風向・風速南 8m/s
視程10km以上
天気現象弱いしゅう雨
全天の4割程度の雲 雲底高度 550m
全天の8割程度の雲 雲底高度 1220m
少しの積乱雲 雲底高度 550m
TAF AYPY 180330Z 1806/1906 18015KT 9999 -SHRA SCT018 BKN040 FEW018CB